Dades meteomassalio
Diari Summary for Gener 11, 2017 Units:  English    Metric   Both
« Previous Day
Next Day »
Diari Semanal Mensual Anual Personalitzat
  Maxima: Minima: Mijana:
Temperatura: 60.1 °F 40.5 °F 50.9 °F
Rosada: 50.4 °F 36.7 °F 44.4 °F
Humitat: 87 % 68 % 79 %
Velocitat del vent: 32.2 mph 0 mph 11.4 mph
Racha vent: 32.2 mph - -
Vent:- - WNW
Pressio: 30.3 in 30 in -
Pluja: 0 in    
Historical Graphs
 
 
Tabular Data for Gener 11, 2017
Time Temperature Dew Point Pressure Wind Wind Speed Wind Gust Humidity Rainfall Rate (Hourly) solar Conditions
00:02 46 °F 40.5 °F 30 in NW 18 mph 18 mph 81 % 0 in 0.0 W/m2 CLR
00:07 45.9 °F 40.5 °F 30 in NW 16 mph 16 mph 81 % 0 in 0.0 W/m2 CLR
00:12 45.9 °F 40.3 °F 30 in NW 23 mph 23 mph 81 % 0 in 0.0 W/m2 CLR
00:17 45.7 °F 40.5 °F 30 in NW 24.2 mph 24.2 mph 82 % 0 in 0.0 W/m2 CLR
00:23 45.7 °F 40.5 °F 30 in NW 19.6 mph 19.6 mph 82 % 0 in 0.0 W/m2 CLR
00:28 45.9 °F 40.6 °F 30 in NW 23 mph 23 mph 82 % 0 in 0.0 W/m2 CLR
00:33 45.9 °F 40.5 °F 30 in NW 20.7 mph 20.7 mph 81 % 0 in 0.0 W/m2 CLR
00:38 45.9 °F 40.5 °F 30 in NW 19.6 mph 19.6 mph 81 % 0 in 0.0 W/m2 CLR
00:43 45.9 °F 40.6 °F 30 in NW 17.3 mph 17.3 mph 82 % 0 in 0.0 W/m2 CLR
00:48 45.9 °F 40.6 °F 30 in NW 23 mph 23 mph 82 % 0 in 0.0 W/m2 CLR
00:53 45.9 °F 40.6 °F 30 in NW 19.6 mph 19.6 mph 82 % 0 in 0.0 W/m2 CLR
00:58 45.9 °F 40.6 °F 30 in NW 15 mph 15 mph 82 % 0 in 0.0 W/m2 CLR
01:03 45.9 °F 40.6 °F 30 in NW 20 mph 20 mph 82 % 0 in 0.0 W/m2 CLR
01:08 45.9 °F 40.6 °F 30 in NW 23 mph 23 mph 82 % 0 in 0.0 W/m2 CLR
01:13 45.9 °F 40.6 °F 30 in NW 17.3 mph 17.3 mph 82 % 0 in 0.0 W/m2 CLR
01:18 45.9 °F 40.6 °F 30 in NW 21.9 mph 21.9 mph 82 % 0 in 0.0 W/m2 CLR
01:23 46 °F 40.8 °F 30 in NW 18.4 mph 18.4 mph 82 % 0 in 0.0 W/m2 CLR
01:28 46.2 °F 41.2 °F 30 in NW 23 mph 23 mph 82 % 0 in 0.0 W/m2 CLR
01:33 46.4 °F 40.8 °F 30 in NW 20 mph 20 mph 81 % 0 in 0.0 W/m2 CLR
01:38 46.6 °F 41 °F 30 in NW 24.2 mph 24.2 mph 81 % 0 in 0.0 W/m2 CLR
01:43 46.6 °F 41.2 °F 30 in NW 21.9 mph 21.9 mph 81 % 0 in 0.0 W/m2 CLR
01:48 46.6 °F 41.2 °F 30 in NW 25.3 mph 25.3 mph 81 % 0 in 0.0 W/m2 CLR
01:53 46.8 °F 41.2 °F 30 in NW 26.5 mph 26.5 mph 81 % 0 in 0.0 W/m2 CLR
01:58 46.8 °F 41.2 °F 30 in NW 26.5 mph 26.5 mph 81 % 0 in 0.0 W/m2 CLR
02:03 46.6 °F 41.2 °F 30 in NW 28.8 mph 28.8 mph 81 % 0 in 0.0 W/m2 CLR
02:08 46.6 °F 41.2 °F 30 in NW 32.2 mph 32.2 mph 81 % 0 in 0.0 W/m2 CLR
02:13 46.8 °F 41.2 °F 30 in NW 32.2 mph 32.2 mph 81 % 0 in 0.0 W/m2 CLR
02:18 46.6 °F 41 °F 30 in NW 25.3 mph 25.3 mph 81 % 0 in 0.0 W/m2 CLR
02:23 46.6 °F 41 °F 30 in NW 25.3 mph 25.3 mph 81 % 0 in 0.0 W/m2 CLR
02:28 46.4 °F 40.8 °F 30 in NW 23 mph 23 mph 81 % 0 in 0.0 W/m2 CLR
02:33 46.4 °F 40.8 °F 30 in NNW 23 mph 23 mph 81 % 0 in 0.0 W/m2 CLR
02:38 46.2 °F 40.8 °F 30 in NNW 23 mph 23 mph 81 % 0 in 0.0 W/m2 CLR
02:43 46.2 °F 40.5 °F 30 in NNW 25.3 mph 25.3 mph 80 % 0 in 0.0 W/m2 CLR
02:48 46.2 °F 40.5 °F 30 in NW 21.9 mph 21.9 mph 80 % 0 in 0.0 W/m2 CLR
02:53 46.2 °F 40.5 °F 30 in NNW 28.8 mph 28.8 mph 80 % 0 in 0.0 W/m2 CLR
02:58 46.2 °F 40.5 °F 30.1 in NNW 22 mph 22 mph 80 % 0 in 0.0 W/m2 CLR
03:03 46 °F 40.3 °F 30.1 in NNW 23 mph 23 mph 80 % 0 in 0.0 W/m2 CLR
03:08 46 °F 40.3 °F 30.1 in NNW 26.5 mph 26.5 mph 80 % 0 in 0.0 W/m2 CLR
03:13 46 °F 40.3 °F 30.1 in NW 26.5 mph 26.5 mph 80 % 0 in 0.0 W/m2 CLR
03:18 46 °F 40.5 °F 30.1 in NW 22 mph 22 mph 81 % 0 in 0.0 W/m2 CLR
03:23 46 °F 40.5 °F 30.1 in NW 20.7 mph 20.7 mph 81 % 0 in 0.0 W/m2 CLR
03:28 45.9 °F 40.3 °F 30.1 in NNW 25.3 mph 25.3 mph 81 % 0 in 0.0 W/m2 CLR
03:33 45.9 °F 40.3 °F 30.1 in NW 19.6 mph 19.6 mph 81 % 0 in 0.0 W/m2 CLR
03:38 45.7 °F 40.3 °F 30.1 in NW 24.2 mph 24.2 mph 81 % 0 in 0.0 W/m2 CLR
03:43 45.7 °F 39.9 °F 30.1 in NW 21.9 mph 21.9 mph 80 % 0 in 0.0 W/m2 CLR
03:48 45.7 °F 40.3 °F 30.1 in NW 25.3 mph 25.3 mph 81 % 0 in 0.0 W/m2 CLR
03:53 45.5 °F 39.9 °F 30.1 in NW 19.6 mph 19.6 mph 81 % 0 in 0.0 W/m2 CLR
03:58 45.3 °F 39.9 °F 30.1 in NNW 21.9 mph 21.9 mph 81 % 0 in 0.0 W/m2 CLR
04:03 45.3 °F 39.9 °F 30.1 in NNW 19.6 mph 19.6 mph 81 % 0 in 0.0 W/m2 CLR
04:08 45.5 °F 39.7 °F 30.1 in NNW 17.3 mph 17.3 mph 80 % 0 in 0.0 W/m2 CLR
04:13 45.3 °F 39.6 °F 30.1 in NNW 20.7 mph 20.7 mph 80 % 0 in 0.0 W/m2 CLR
04:18 45.3 °F 39.6 °F 30.1 in NW 16 mph 16 mph 80 % 0 in 0.0 W/m2 CLR
04:23 45.3 °F 39.6 °F 30.1 in NW 15 mph 15 mph 80 % 0 in 0.0 W/m2 CLR
04:28 45.1 °F 39.4 °F 30.1 in NW 13 mph 13 mph 80 % 0 in 0.0 W/m2 CLR
04:33 45.1 °F 39.4 °F 30.1 in NW 15 mph 15 mph 80 % 0 in 0.0 W/m2 CLR
04:38 45 °F 39.2 °F 30.1 in NW 12.7 mph 12.7 mph 80 % 0 in 0.0 W/m2 CLR
04:43 45 °F 39.2 °F 30.1 in WNW 9.2 mph 9.2 mph 80 % 0 in 0.0 W/m2 CLR
04:48 44.8 °F 39 °F 30.1 in WNW 8 mph 8 mph 80 % 0 in 0.0 W/m2 CLR
04:53 44.8 °F 38.8 °F 30.1 in WNW 10.4 mph 10.4 mph 80 % 0 in 0.0 W/m2 CLR
04:58 44.4 °F 39 °F 30.1 in WNW 10 mph 10 mph 81 % 0 in 0.0 W/m2 CLR
05:03 44.2 °F 38.8 °F 30.1 in WNW 10 mph 10 mph 81 % 0 in 0.0 W/m2 CLR
05:08 44.2 °F 38.8 °F 30.1 in WNW 9.2 mph 9.2 mph 81 % 0 in 0.0 W/m2 CLR
05:14 44.2 °F 39 °F 30.1 in WNW 9 mph 9 mph 82 % 0 in 0.0 W/m2 CLR
05:19 44.2 °F 39.2 °F 30.1 in WNW 10.4 mph 10.4 mph 82 % 0 in 0.0 W/m2 CLR
05:24 44.2 °F 39 °F 30.1 in WNW 11.5 mph 11.5 mph 82 % 0 in 0.0 W/m2 CLR
05:29 44.2 °F 39 °F 30.1 in WNW 10.4 mph 10.4 mph 82 % 0 in 0.0 W/m2 CLR
05:34 44.4 °F 39.2 °F 30.1 in WNW 12.7 mph 12.7 mph 82 % 0 in 0.0 W/m2 CLR
05:39 44.4 °F 39.2 °F 30.1 in WNW 12 mph 12 mph 82 % 0 in 0.0 W/m2 CLR
05:44 44.4 °F 39.2 °F 30.1 in WNW 13.8 mph 13.8 mph 82 % 0 in 0.0 W/m2 CLR
05:49 44.4 °F 39 °F 30.1 in WNW 12.7 mph 12.7 mph 81 % 0 in 0.0 W/m2 CLR
05:54 44.6 °F 39 °F 30.1 in WNW 10.4 mph 10.4 mph 81 % 0 in 0.0 W/m2 CLR
05:59 44.6 °F 39 °F 30.1 in WNW 11.5 mph 11.5 mph 81 % 0 in 0.0 W/m2 CLR
06:04 44.4 °F 39 °F 30.1 in WNW 10.4 mph 10.4 mph 81 % 0 in 0.0 W/m2 CLR
06:09 44.2 °F 38.8 °F 30.1 in WNW 12.7 mph 12.7 mph 81 % 0 in 0.0 W/m2 CLR
06:14 44.2 °F 38.7 °F 30.1 in WNW 11.5 mph 11.5 mph 81 % 0 in 0.0 W/m2 CLR
06:19 44.4 °F 38.8 °F 30.1 in WNW 10.4 mph 10.4 mph 81 % 0 in 0.0 W/m2 CLR
06:24 44.6 °F 39 °F 30.1 in WNW 10.4 mph 10.4 mph 81 % 0 in 0.0 W/m2 CLR
06:29 44.8 °F 38.8 °F 30.1 in West 9.2 mph 9.2 mph 80 % 0 in 0.0 W/m2 CLR
06:34 44.8 °F 38.8 °F 30.1 in West 4.6 mph 4.6 mph 80 % 0 in 0.0 W/m2 CLR
06:39 44.2 °F 38.1 °F 30.1 in Calm     79 % 0 in 0.0 W/m2 CLR
06:44 43.3 °F 37.9 °F 30.1 in WSW 7 mph 7.1 mph 81 % 0 in 0.0 W/m2 CLR
06:49 42.8 °F 37.9 °F 30.1 in WSW 8.1 mph 8.1 mph 83 % 0 in 0.0 W/m2 CLR
06:54 42.6 °F 37.8 °F 30.1 in WSW 9.2 mph 9.2 mph 83 % 0 in 0.0 W/m2 CLR
06:59 42.4 °F 37.9 °F 30.1 in WSW 10.4 mph 10.4 mph 84 % 0 in 0.0 W/m2 CLR
07:04 42.4 °F 37.9 °F 30.1 in WSW 8.1 mph 8.1 mph 84 % 0 in 0.0 W/m2 CLR
07:09 42.4 °F 37.9 °F 30.1 in WSW 6.9 mph 6.9 mph 84 % 0 in 0.0 W/m2 CLR
07:14 42.4 °F 37.9 °F 30.1 in WSW 7 mph 7 mph 84 % 0 in 0.0 W/m2 CLR
07:19 42.3 °F 37.8 °F 30.1 in WSW 5.8 mph 5.8 mph 84 % 0 in 0.0 W/m2 CLR
07:24 42.1 °F 37.6 °F 30.1 in WSW 5.8 mph 5.8 mph 84 % 0 in 0.0 W/m2 CLR
07:29 41.5 °F 37 °F 30.1 in Calm     84 % 0 in 0.0 W/m2 CLR
07:34 41.2 °F 37 °F 30.2 in Calm     85 % 0 in 0.0 W/m2 CLR
07:39 40.8 °F 37 °F 30.2 in Calm     86 % 0 in 0.0 W/m2 CLR
07:44 40.8 °F 36.9 °F 30.2 in Calm     86 % 0 in 0.0 W/m2 CLR
07:49 40.6 °F 36.7 °F 30.2 in Calm     86 % 0 in 0.0 W/m2 CLR
07:54 40.5 °F 36.7 °F 30.2 in Calm     86 % 0 in 0.0 W/m2 CLR
07:59 40.5 °F 36.9 °F 30.2 in Calm     87 % 0 in 0.0 W/m2 CLR
08:04 40.6 °F 37 °F 30.2 in Calm     87 % 0 in 0.0 W/m2 CLR
08:09 40.6 °F 37 °F 30.2 in Calm     87 % 0 in 0.0 W/m2 CLR
08:14 40.8 °F 37.2 °F 30.2 in Calm     87 % 0 in 0.0 W/m2 CLR
08:19 41.2 °F 37.6 °F 30.2 in Calm     87 % 0 in 5.0 W/m2 CLR
08:24 41.4 °F 37.8 °F 30.2 in Calm     87 % 0 in 5.0 W/m2 BKN
08:29 41.7 °F 38.1 °F 30.2 in Calm     87 % 0 in 7.0 W/m2 BKN
08:34 42.1 °F 38.5 °F 30.2 in Calm     87 % 0 in 12.0 W/m2 BKN
08:39 42.8 °F 38.8 °F 30.2 in Calm     86 % 0 in 16.0 W/m2 BKN
08:44 43.9 °F 39.7 °F 30.2 in West 4.6 mph 4.6 mph 85 % 0 in 18.0 W/m2 BKN
08:49 44.4 °F 39.9 °F 30.2 in West 6.9 mph 6.9 mph 84 % 0 in 18.0 W/m2 BKN
08:54 45 °F 40.1 °F 30.2 in West 4.6 mph   83 % 0 in 21.0 W/m2 BKN
08:59 45.3 °F 40.1 °F 30.2 in Calm     82 % 0 in 25.0 W/m2 BKN
09:04 45.3 °F 40.3 °F 30.2 in Calm     82 % 0 in 28.0 W/m2 BKN
09:09 45.5 °F 40.3 °F 30.2 in Calm     82 % 0 in 35.0 W/m2 BKN
09:14 45.5 °F 40.3 °F 30.2 in Calm     82 % 0 in 40.0 W/m2 BKN
09:19 45.5 °F 40.3 °F 30.2 in West 10.4 mph 10.4 mph 82 % 0 in 47.0 W/m2 BKN
09:24 45.9 °F 40.6 °F 30.2 in WSW 9 mph 9 mph 82 % 0 in 58.0 W/m2 BKN
09:29 46 °F 40.5 °F 30.2 in West 10.4 mph 10.4 mph 81 % 0 in 56.0 W/m2 BKN
09:34 46 °F 40.6 °F 30.2 in WNW 7 mph 7 mph 81 % 0 in 58.0 W/m2 BKN
09:39 46.2 °F 40.6 °F 30.2 in WNW 9.2 mph 9.2 mph 81 % 0 in 51.0 W/m2 BKN
09:44 46.2 °F 40.8 °F 30.2 in West 5.8 mph 5.8 mph 81 % 0 in 72.0 W/m2 BKN
09:49 46.4 °F 40.8 °F 30.2 in Calm     81 % 0 in 95.0 W/m2 BKN
09:54 46.6 °F 41 °F 30.2 in Calm     81 % 0 in 70.0 W/m2 BKN
09:59 46.4 °F 40.8 °F 30.2 in Calm     81 % 0 in 83.0 W/m2 BKN
10:04 46.2 °F 40.8 °F 30.2 in Calm     81 % 0 in 97.0 W/m2 BKN
10:09 46.4 °F 41.2 °F 30.2 in Calm     82 % 0 in 95.0 W/m2 BKN
10:14 46.6 °F 41.4 °F 30.2 in Calm     82 % 0 in 91.0 W/m2 BKN
10:19 46.6 °F 41.4 °F 30.2 in Calm     82 % 0 in 100.0 W/m2 BKN
10:24 46.9 °F 41.7 °F 30.2 in Calm     82 % 0 in 97.0 W/m2 BKN
10:29 47.1 °F 41.9 °F 30.2 in Calm     82 % 0 in 91.0 W/m2 BKN
10:34 47.3 °F 42.1 °F 30.2 in Calm     82 % 0 in 86.0 W/m2 BKN
10:40 47.5 °F 42.3 °F 30.2 in WSW 2.3 mph 2.3 mph 82 % 0 in 95.0 W/m2 BKN
10:45 47.8 °F 42.3 °F 30.2 in WSW 3.5 mph 3.5 mph 81 % 0 in 127.0 W/m2 BKN
10:50 48 °F 42.4 °F 30.2 in Calm     81 % 0 in 160.0 W/m2 BKN
10:55 48.4 °F 42.8 °F 30.2 in Calm     81 % 0 in 128.0 W/m2 BKN
11:00 48.7 °F 43.2 °F 30.2 in Calm     81 % 0 in 137.0 W/m2 BKN
11:05 48.9 °F 43.3 °F 30.2 in WSW 2 mph 2 mph 81 % 0 in 123.0 W/m2 BKN
11:10 49.3 °F 43.3 °F 30.2 in WSW 3 mph 3 mph 80 % 0 in 125.0 W/m2 BKN
11:15 49.6 °F 43.7 °F 30.2 in West 3.5 mph 3.5 mph 80 % 0 in 227.0 W/m2 BKN
11:20 49.8 °F 44.1 °F 30.2 in West 4.6 mph 4.6 mph 80 % 0 in 174.0 W/m2 BKN
11:25 50.4 °F 44.4 °F 30.2 in West 8.1 mph 8.1 mph 80 % 0 in 441.0 W/m2 BKN
11:30 51.3 °F 45.1 °F 30.2 in WSW 5.8 mph 5.8 mph 80 % 0 in 418.0 W/m2 SCT
11:35 52.2 °F 45.3 °F 30.2 in West 11.5 mph 11.5 mph 78 % 0 in 540.0 W/m2 CLR
11:40 53.1 °F 46.2 °F 30.2 in WNW 12.7 mph 12.7 mph 78 % 0 in 564.0 W/m2 CLR
11:45 53.6 °F 46.2 °F 30.2 in WNW 11.5 mph 11.5 mph 76 % 0 in 336.0 W/m2 CLR
11:50 53.2 °F 46.2 °F 30.2 in WNW 15 mph 15 mph 77 % 0 in 287.0 W/m2 FEW
11:55 53.2 °F 45.9 °F 30.2 in WNW 11.5 mph 11.5 mph 76 % 0 in 253.0 W/m2 SCT
12:00 53.2 °F 46.2 °F 30.2 in WNW 11.5 mph 11.5 mph 77 % 0 in 302.0 W/m2 SCT
12:05 53.4 °F 46.6 °F 30.2 in WNW 9.2 mph 9.2 mph 77 % 0 in 294.0 W/m2 SCT
12:10 54 °F 46.9 °F 30.2 in WNW 9.2 mph 9.2 mph 77 % 0 in 388.0 W/m2 SCT
12:15 54.3 °F 46.9 °F 30.2 in WNW 12.7 mph 12.7 mph 76 % 0 in 341.0 W/m2 SCT
12:20 54.3 °F 46.9 °F 30.2 in WNW 19.6 mph 19.6 mph 76 % 0 in 244.0 W/m2 SCT
12:25 54.1 °F 46.8 °F 30.2 in WNW 17.3 mph 17.3 mph 76 % 0 in 218.0 W/m2 SCT
12:30 54.1 °F 46.9 °F 30.2 in WNW 11.5 mph 11.5 mph 77 % 0 in 244.0 W/m2 BKN
12:35 54.3 °F 47.1 °F 30.2 in WNW 11.5 mph 11.5 mph 77 % 0 in 237.0 W/m2 BKN
12:40 54.5 °F 47.1 °F 30.2 in WNW 11.5 mph 11.5 mph 76 % 0 in 207.0 W/m2 BKN
12:45 54.7 °F 47.3 °F 30.2 in WNW 11.5 mph 11.5 mph 76 % 0 in 155.0 W/m2 BKN
12:50 54.9 °F 47.5 °F 30.2 in WNW 11.5 mph 11.5 mph 76 % 0 in 225.0 W/m2 BKN
12:55 55.8 °F 47.8 °F 30.2 in WNW 13 mph 13 mph 75 % 0 in 483.0 W/m2 SCT
13:00 56.1 °F 47.7 °F 30.2 in WNW 17.3 mph 17.3 mph 73 % 0 in 425.0 W/m2 CLR
13:05 56.1 °F 47.7 °F 30.2 in WNW 15 mph 15 mph 73 % 0 in 425.0 W/m2 CLR
13:10 56.7 °F 48.4 °F 30.2 in WNW 12.7 mph 12.7 mph 74 % 0 in 490.0 W/m2 CLR
13:15 56.8 °F 48.4 °F 30.2 in WNW 12.7 mph 12.7 mph 73 % 0 in 492.0 W/m2 CLR
13:20 57.2 °F 48.4 °F 30.2 in NW 16.1 mph 16.1 mph 72 % 0 in 494.0 W/m2 CLR
13:25 57.2 °F 48.4 °F 30.2 in NW 13.8 mph 13.8 mph 72 % 0 in 522.0 W/m2 CLR
13:30 57 °F 48.2 °F 30.2 in NW 18.4 mph 18.4 mph 72 % 0 in 524.0 W/m2 CLR
13:35 57.4 °F 48.4 °F 30.2 in NW 16.1 mph 16.1 mph 72 % 0 in 492.0 W/m2 CLR
13:40 57.7 °F 49.1 °F 30.2 in WNW 7 mph 7 mph 73 % 0 in 522.0 W/m2 CLR
13:45 57.9 °F 48.9 °F 30.2 in NW 11.5 mph 11.5 mph 72 % 0 in 130.0 W/m2 CLR
13:50 57.7 °F 48.7 °F 30.2 in NW 11.5 mph 11.5 mph 72 % 0 in 476.0 W/m2 SCT
13:55 58.1 °F 48.7 °F 30.2 in NW 13.8 mph 13.8 mph 71 % 0 in 508.0 W/m2 SCT
14:00 58.3 °F 48.9 °F 30.2 in NW 13.8 mph 13.8 mph 71 % 0 in 504.0 W/m2 CLR
14:05 58.3 °F 48.6 °F 30.2 in NW 11.5 mph 11.5 mph 70 % 0 in 151.0 W/m2 CLR
14:10 58.1 °F 48.7 °F 30.2 in NW 14 mph 14 mph 71 % 0 in 67.0 W/m2 CLR
14:15 58.1 °F 48.7 °F 30.2 in NW 11.5 mph 11.5 mph 71 % 0 in 70.0 W/m2 BKN
14:20 58.5 °F 48.9 °F 30.2 in WNW 12.7 mph 12.7 mph 71 % 0 in 459.0 W/m2 SCT
14:25 58.8 °F 48.6 °F 30.2 in NW 15 mph 15 mph 69 % 0 in 425.0 W/m2 CLR
14:30 59.4 °F 49.1 °F 30.2 in NW 15 mph 15 mph 69 % 0 in 415.0 W/m2 CLR
14:35 59.5 °F 48.9 °F 30.2 in NW 10.4 mph 10.4 mph 68 % 0 in 420.0 W/m2 CLR
14:40 59.4 °F 48.7 °F 30.2 in NW 11.5 mph 11.5 mph 68 % 0 in 62.0 W/m2 FEW
14:45 59 °F 48.7 °F 30.2 in NW 11.5 mph 11.5 mph 69 % 0 in 417.0 W/m2 SCT
14:50 58.8 °F 48.6 °F 30.2 in NW 12.7 mph 12.7 mph 69 % 0 in 62.0 W/m2 BKN
14:55 58.8 °F 48.9 °F 30.2 in NW 10.4 mph 10.4 mph 70 % 0 in 79.0 W/m2 SCT
15:00 59.5 °F 49.3 °F 30.2 in NW 13.8 mph 13.8 mph 69 % 0 in 480.0 W/m2 FEW
15:05 59.7 °F 49.5 °F 30.2 in NW 14 mph 14 mph 69 % 0 in 53.0 W/m2 SCT
15:10 59.4 °F 49.1 °F 30.2 in NW 11.5 mph 11.5 mph 69 % 0 in 345.0 W/m2 SCT
15:15 59.5 °F 49.5 °F 30.2 in NW 12.7 mph 12.7 mph 69 % 0 in 350.0 W/m2 FEW
15:20 59.7 °F 49.6 °F 30.2 in WNW 12.7 mph 12.7 mph 69 % 0 in 346.0 W/m2 CLR
15:25 60.1 °F 49.8 °F 30.2 in NW 13.8 mph 13.8 mph 69 % 0 in 313.0 W/m2 CLR
15:30 60.1 °F 50.2 °F 30.2 in NW 20.7 mph 20.7 mph 70 % 0 in 306.0 W/m2 CLR
15:35 59.4 °F 49.5 °F 30.2 in NW 15 mph 15 mph 70 % 0 in 35.0 W/m2 FEW
15:40 58.5 °F 49.5 °F 30.2 in NW 13 mph 13 mph 72 % 0 in 49.0 W/m2 BKN
15:45 58.6 °F 50 °F 30.2 in NW 13.8 mph 13.8 mph 73 % 0 in 271.0 W/m2 BKN
15:50 59 °F 50 °F 30.2 in NW 13.8 mph 13.8 mph 72 % 0 in 255.0 W/m2 FEW
15:56 59.4 °F 50.4 °F 30.2 in NNW 10.4 mph 10.4 mph 72 % 0 in 248.0 W/m2 CLR
16:01 59.4 °F 49.8 °F 30.2 in NW 16.1 mph 16.1 mph 71 % 0 in 234.0 W/m2 CLR
16:06 59.4 °F 50.4 °F 30.2 in NW 11.5 mph 11.5 mph 72 % 0 in 220.0 W/m2 CLR
16:11 59.4 °F 50.4 °F 30.2 in NW 13.8 mph 13.8 mph 72 % 0 in 206.0 W/m2 CLR
16:16 59.4 °F 50.4 °F 30.2 in NW 14 mph 14 mph 72 % 0 in 193.0 W/m2 CLR
16:21 59.2 °F 49.6 °F 30.2 in NW 11.5 mph 11.5 mph 71 % 0 in 30.0 W/m2 CLR
16:26 58.6 °F 50.2 °F 30.2 in NW 11.5 mph 11.5 mph 73 % 0 in 121.0 W/m2 BKN
16:31 58.6 °F 50.2 °F 30.2 in NW 10.4 mph 10.4 mph 73 % 0 in 155.0 W/m2 SCT
16:36 58.8 °F 50.4 °F 30.2 in NW 10.4 mph 10.4 mph 73 % 0 in 144.0 W/m2 CLR
16:41 58.8 °F 50.2 °F 30.2 in NW 12.7 mph 12.7 mph 73 % 0 in 32.0 W/m2 CLR
16:46 58.6 °F 50 °F 30.2 in NW 9 mph 9 mph 73 % 0 in 32.0 W/m2 SCT
16:51 58.3 °F 50 °F 30.2 in NW 9.2 mph 9.2 mph 74 % 0 in 26.0 W/m2 BKN
16:56 58.1 °F 49.8 °F 30.2 in Calm     74 % 0 in 19.0 W/m2 SCT
17:01 57.9 °F 50 °F 30.2 in Calm     75 % 0 in 25.0 W/m2 CLR
17:06 57.7 °F 49.8 °F 30.2 in Calm     75 % 0 in 28.0 W/m2 OVC
17:11 57.7 °F 49.8 °F 30.2 in Calm     75 % 0 in 25.0 W/m2 OVC
17:16 57.7 °F 49.8 °F 30.2 in Calm     75 % 0 in 26.0 W/m2 OVC
17:21 57.7 °F 49.8 °F 30.2 in WNW 6.9 mph 6.9 mph 75 % 0 in 14.0 W/m2 OVC
17:26 57.7 °F 49.8 °F 30.2 in WNW 8.1 mph 8.1 mph 75 % 0 in 12.0 W/m2 OVC
17:31 57.6 °F 49.6 °F 30.2 in Calm     75 % 0 in 11.0 W/m2 OVC
17:36 57.2 °F 49.3 °F 30.2 in Calm     75 % 0 in 9.0 W/m2 OVC
17:41 57 °F 49.5 °F 30.2 in Calm   0.1 mph 76 % 0 in 5.0 W/m2 OVC
17:46 57 °F 49.5 °F 30.2 in WNW 1.2 mph 1.2 mph 76 % 0 in 0.0 W/m2 OVC
17:51 57 °F 49.5 °F 30.2 in Calm     76 % 0 in 0.0 W/m2 OVC
17:56 57 °F 49.6 °F 30.2 in West 2.3 mph   76 % 0 in 0.0 W/m2 CLR
18:01 57 °F 49.6 °F 30.2 in Calm     76 % 0 in 0.0 W/m2 CLR
18:06 57 °F 49.6 °F 30.2 in WNW 2 mph 2 mph 76 % 0 in 0.0 W/m2 CLR
18:11 57.2 °F 49.6 °F 30.2 in West 2 mph 2.1 mph 76 % 0 in 0.0 W/m2 CLR
18:16 57.4 °F 49.5 °F 30.2 in WNW 3.5 mph 3.5 mph 75 % 0 in 0.0 W/m2 CLR
18:21 57.4 °F 49.5 °F 30.2 in Calm     75 % 0 in 0.0 W/m2 CLR
18:26 57.2 °F 49.3 °F 30.2 in West 3.5 mph 3.5 mph 75 % 0 in 0.0 W/m2 CLR
18:31 57.2 °F 49.3 °F 30.2 in West 4.6 mph 4.6 mph 75 % 0 in 0.0 W/m2 CLR
18:36 57.4 °F 49.5 °F 30.2 in West 5.8 mph 5.8 mph 75 % 0 in 0.0 W/m2 CLR
18:41 57.2 °F 49.3 °F 30.2 in West 10.4 mph 10.4 mph 75 % 0 in 0.0 W/m2 CLR
18:46 57.2 °F 49.3 °F 30.2 in West 11.5 mph 11.5 mph 75 % 0 in 0.0 W/m2 CLR
18:51 57.2 °F 49.3 °F 30.2 in West 12 mph 12 mph 75 % 0 in 0.0 W/m2 CLR
18:56 57 °F 49.3 °F 30.2 in West 13.8 mph 13.8 mph 75 % 0 in 0.0 W/m2 CLR
19:01 57 °F 49.5 °F 30.2 in WNW 11.5 mph 11.5 mph 76 % 0 in 0.0 W/m2 CLR
19:06 56.8 °F 49.3 °F 30.2 in WNW 12.7 mph 12.7 mph 76 % 0 in 0.0 W/m2 CLR
19:11 56.5 °F 49.5 °F 30.2 in WNW 13.8 mph 13.8 mph 77 % 0 in 0.0 W/m2 CLR
19:16 56.1 °F 49.1 °F 30.2 in WNW 11.5 mph 11.5 mph 77 % 0 in 0.0 W/m2 CLR
19:21 55.9 °F 49.3 °F 30.2 in WNW 13.8 mph 13.8 mph 78 % 0 in 0.0 W/m2 CLR
19:26 55.8 °F 48.9 °F 30.2 in WNW 13.8 mph 13.8 mph 78 % 0 in 0.0 W/m2 CLR
19:31 55.8 °F 48.9 °F 30.2 in WNW 10.4 mph 10.4 mph 78 % 0 in 0.0 W/m2 CLR
19:36 55.8 °F 49.3 °F 30.2 in WNW 13.8 mph 13.8 mph 79 % 0 in 0.0 W/m2 CLR
19:41 55.8 °F 49.3 °F 30.2 in West 10.4 mph 10.4 mph 79 % 0 in 0.0 W/m2 CLR
19:46 55.6 °F 49.3 °F 30.2 in WNW 11.5 mph 11.5 mph 79 % 0 in 0.0 W/m2 CLR
19:51 55.6 °F 49.1 °F 30.2 in WNW 11.5 mph 11.5 mph 79 % 0 in 0.0 W/m2 CLR
19:56 55.4 °F 48.9 °F 30.2 in WNW 11.5 mph 11.5 mph 79 % 0 in 0.0 W/m2 CLR
20:01 55.2 °F 48.7 °F 30.2 in WNW 16.1 mph 16.1 mph 79 % 0 in 0.0 W/m2 CLR
20:06 55.4 °F 48.9 °F 30.2 in WNW 12.7 mph 12.7 mph 79 % 0 in 0.0 W/m2 CLR
20:11 55.2 °F 48.7 °F 30.3 in West 11.5 mph 11.5 mph 79 % 0 in 0.0 W/m2 CLR
20:16 55.2 °F 48.7 °F 30.3 in West 11.5 mph 11.5 mph 79 % 0 in 0.0 W/m2 CLR
20:21 55 °F 48.7 °F 30.3 in West 11.5 mph 11.5 mph 79 % 0 in 0.0 W/m2 CLR
20:26 55 °F 48.7 °F 30.3 in West 11.5 mph 11.5 mph 79 % 0 in 0.0 W/m2 CLR
20:31 55 °F 48.6 °F 30.3 in West 12.7 mph 12.7 mph 79 % 0 in 0.0 W/m2 CLR
20:36 55 °F 48.7 °F 30.3 in West 11.5 mph 11.5 mph 79 % 0 in 0.0 W/m2 CLR
20:41 54.9 °F 48.6 °F 30.3 in West 10.4 mph 10.4 mph 79 % 0 in 0.0 W/m2 CLR
20:46 54.9 °F 48.6 °F 30.3 in West 11.5 mph 11.5 mph 79 % 0 in 0.0 W/m2 CLR
20:51 54.7 °F 48.4 °F 30.3 in West 8.1 mph 8.1 mph 79 % 0 in 0.0 W/m2 CLR
20:56 54.7 °F 48.6 °F 30.3 in West 12.7 mph 12.7 mph 80 % 0 in 0.0 W/m2 CLR
21:01 54.7 °F 48.6 °F 30.3 in West 11.5 mph 11.5 mph 80 % 0 in 0.0 W/m2 CLR
21:06 54.3 °F 48.4 °F 30.3 in West 9.2 mph 9.2 mph 80 % 0 in 0.0 W/m2 CLR
21:11 54.1 °F 48.2 °F 30.3 in WSW 9.2 mph 9.2 mph 80 % 0 in 0.0 W/m2 CLR
21:16 54.1 °F 48 °F 30.3 in West 9.2 mph 9.2 mph 80 % 0 in 0.0 W/m2 CLR
21:21 54.1 °F 48 °F 30.3 in West 4.6 mph 4.6 mph 80 % 0 in 0.0 W/m2 CLR
21:26 54.1 °F 48 °F 30.3 in West 9.2 mph 9.2 mph 80 % 0 in 0.0 W/m2 CLR
21:31 54 °F 48 °F 30.3 in West 8.1 mph 8.1 mph 80 % 0 in 0.0 W/m2 CLR
21:36 54.1 °F 48.4 °F 30.3 in West 12.7 mph 12.7 mph 81 % 0 in 0.0 W/m2 CLR
21:41 54 °F 48 °F 30.3 in West 9.2 mph 9.2 mph 80 % 0 in 0.0 W/m2 CLR
21:46 54 °F 48.2 °F 30.3 in West 9.2 mph 9.2 mph 81 % 0 in 0.0 W/m2 CLR
21:51 53.8 °F 48 °F 30.3 in WSW 10.4 mph 10.4 mph 81 % 0 in 0.0 W/m2 CLR
21:56 53.4 °F 47.8 °F 30.3 in WSW 8.1 mph 8.1 mph 81 % 0 in 0.0 W/m2 CLR
22:01 53.2 °F 47.7 °F 30.3 in WSW 9.2 mph 9.2 mph 81 % 0 in 0.0 W/m2 CLR
22:06 53.2 °F 47.8 °F 30.3 in WSW 6.9 mph 6.9 mph 82 % 0 in 0.0 W/m2 CLR
22:11 53.2 °F 47.8 °F 30.3 in West 12.7 mph 12.7 mph 82 % 0 in 0.0 W/m2 CLR
22:16 53.8 °F 48 °F 30.3 in West 12.7 mph 12.7 mph 81 % 0 in 0.0 W/m2 CLR
22:21 54 °F 47.8 °F 30.3 in West 16.1 mph 16.1 mph 80 % 0 in 0.0 W/m2 CLR
22:26 53.8 °F 47.8 °F 30.3 in West 12 mph 12 mph 80 % 0 in 0.0 W/m2 CLR
22:31 54 °F 48 °F 30.3 in West 12.7 mph 12.7 mph 80 % 0 in 0.0 W/m2 CLR
22:36 54.1 °F 48 °F 30.3 in West 12.7 mph 12.7 mph 80 % 0 in 0.0 W/m2 CLR
22:41 54.1 °F 47.8 °F 30.3 in West 11.5 mph 11.5 mph 79 % 0 in 0.0 W/m2 CLR
22:47 54.1 °F 47.8 °F 30.3 in West 15 mph 15 mph 79 % 0 in 0.0 W/m2 CLR
22:52 54.3 °F 47.8 °F 30.3 in West 12.7 mph 12.7 mph 79 % 0 in 0.0 W/m2 CLR
22:57 54.3 °F 47.7 °F 30.3 in West 12.7 mph 12.7 mph 78 % 0 in 0.0 W/m2 CLR
23:02 54.3 °F 47.7 °F 30.3 in West 18.4 mph 18.4 mph 78 % 0 in 0.0 W/m2 CLR
23:07 54.5 °F 47.8 °F 30.3 in West 15 mph 15 mph 78 % 0 in 0.0 W/m2 CLR
23:12 54.3 °F 47.7 °F 30.3 in West 12.7 mph 12.7 mph 78 % 0 in 0.0 W/m2 CLR
23:17 54.3 °F 47.7 °F 30.3 in West 12.7 mph 12.7 mph 78 % 0 in 0.0 W/m2 CLR
23:22 54 °F 47.5 °F 30.3 in West 9.2 mph 9.2 mph 79 % 0 in 0.0 W/m2 CLR
23:27 53.6 °F 47.1 °F 30.3 in West 12 mph 12 mph 79 % 0 in 0.0 W/m2 CLR
23:32 54 °F 47.5 °F 30.3 in West 16.1 mph 16.1 mph 79 % 0 in 0.0 W/m2 CLR
23:37 54 °F 47.7 °F 30.3 in West 16.1 mph 16.1 mph 79 % 0 in 0.0 W/m2 CLR
23:42 54.1 °F 47.5 °F 30.3 in West 15 mph 15 mph 78 % 0 in 0.0 W/m2 CLR
23:47 54.1 °F 47.5 °F 30.3 in West 15 mph 15 mph 78 % 0 in 0.0 W/m2 CLR
23:52 54 °F 47.3 °F 30.3 in West 13.8 mph 13.8 mph 78 % 0 in 0.0 W/m2 CLR
23:57 53.8 °F 47.1 °F 30.3 in West 13.8 mph 13.8 mph 78 % 0 in 0.0 W/m2 CLR
Lo Temps de Massalio
Compliments of Weather Underground - 1.25 mb